TBPB

Sir Grantley Adams International Airport

Bridgetown, Barbados
TAF TBPB 190500Z 1906/2006 05015KT 9000 RA SCT013 OVC032 PROB40 TEMPO 1906/1910 05017G30KT 5000 SHRA
Issued Valid From Valid To
Oct-19 @ 05:00 UTC
(4 hours ago)
Oct-19 @ 06:00 UTC
(3 hours ago)
Oct-20 @ 06:00 UTC
(in 21 hours)
Oct-19 @ 06:00 to Oct-20 @ 06:00
TAF TBPB 190500Z 1906/2006 05015KT 9000 RA SCT013 OVC032
Wind Visibility Clouds Conditions
50° at 15 knots 8,996 meters
  • Scattered at 1,300' AGL
  • Overcast at 3,200' AGL
  • Rain
Temporary  (Probability 40%) Oct-19 @ 06:00 to Oct-19 @ 10:00
PROB40 TEMPO 1906/1910 05017G30KT 5000 SHRA
Wind Visibility Conditions
50° at 17 knots
 Gusting to 30 knots
5,005 meters
  • Rain
TAF TBPB 190500Z 1906/2006 05015KT 9000 RA SCT013 OVC032 PROB40 TEMPO 1906/1910 05017G30KT 5000 SHRA
Issued Oct-19 @ 05:00 UTC
(4 hours ago)
Valid From Oct-19 @ 06:00 UTC
(3 hours ago)
Valid To Oct-20 @ 06:00 UTC
(in 21 hours)
Oct-19 @ 06:00 - Oct-20 @ 06:00
Wind Visibility
50° at 15 knots 8,996 meters
Clouds
  • Scattered at 1,300' AGL
  • Overcast at 3,200' AGL
Conditions
  • Rain
Probability 40% Temporary Oct-19 @ 06:00 - Oct-19 @ 10:00
Wind Visibility
50° at 17 knots
 Gusting to 30 knots
5,005 meters
Conditions
  • Rain